Time;durP1;ratioP1;P1;durP2;ratioP2;P2;SDS_P1;SDS_P2;PMS_P1;PMS_P2;Temp;Humidity;BMP_temperature;BMP_pressure;BME280_temperature;BME280_humidity;BME280_pressure;Samples;Min_cycle;Max_cycle;Signal;HPM_P1;HPM_P2
2022/09/22 00:02:11;;;;;;;3.40;2.20;;;9.60;99.90;;;;;;7376545;19;20424;-45
2022/09/22 00:04:43;;;;;;;2.78;2.10;;;9.60;99.90;;;;;;7381498;19;20384;-45
2022/09/22 00:07:13;;;;;;;2.25;1.77;;;9.60;99.90;;;;;;7381068;19;20165;-45
2022/09/22 00:09:42;;;;;;;2.42;2.10;;;9.50;99.90;;;;;;7379726;19;20155;-46
2022/09/22 00:12:12;;;;;;;2.40;1.60;;;9.50;99.90;;;;;;7378726;19;20626;-45
2022/09/22 00:14:41;;;;;;;4.43;2.00;;;9.30;99.90;;;;;;7375191;19;20131;-46
2022/09/22 00:17:11;;;;;;;2.25;2.05;;;9.30;99.90;;;;;;7375477;19;20684;-45
2022/09/22 00:19:43;;;;;;;3.30;1.92;;;9.30;99.90;;;;;;7379210;19;20127;-45
2022/09/22 00:22:12;;;;;;;1.83;1.60;;;9.20;99.90;;;;;;7380096;19;20139;-45
2022/09/22 00:24:46;;;;;;;1.60;1.50;;;9.40;99.90;;;;;;7377673;19;20127;-45
2022/09/22 00:27:16;;;;;;;2.00;1.20;;;9.40;99.90;;;;;;7380610;19;20737;-45
2022/09/22 00:29:45;;;;;;;2.50;1.50;;;9.50;99.90;;;;;;7375531;19;20359;-46
2022/09/22 00:32:15;;;;;;;2.15;1.75;;;9.60;99.90;;;;;;7375113;19;20128;-45
2022/09/22 00:34:50;;;;;;;2.42;1.85;;;9.70;99.90;;;;;;7377758;19;20810;-46
2022/09/22 00:37:19;;;;;;;3.00;2.23;;;9.70;99.90;;;;;;7378585;19;20132;-45
2022/09/22 00:39:49;;;;;;;3.38;2.03;;;9.50;99.90;;;;;;7375365;19;20368;-46
2022/09/22 00:42:18;;;;;;;2.85;2.00;;;9.40;99.90;;;;;;7380453;19;20145;-45
2022/09/22 00:44:50;;;;;;;4.55;2.30;;;9.50;99.90;;;;;;7380928;19;20123;-45
2022/09/22 00:47:33;;;;;;;2.20;1.70;;;9.50;99.90;;;;;;7371925;19;20127;-46
2022/09/22 00:50:14;;;;;;;3.38;2.30;;;9.40;99.90;;;;;;7373009;19;20135;-45
2022/09/22 00:52:47;;;;;;;2.97;1.67;;;9.20;99.90;;;;;;7372080;19;20617;-46
2022/09/22 00:55:20;;;;;;;3.25;1.90;;;9.20;99.90;;;;;;7373068;19;20481;-46
2022/09/22 00:57:51;;;;;;;4.32;2.22;;;9.20;99.90;;;;;;7375987;19;20170;-45
2022/09/22 01:00:21;;;;;;;5.97;2.40;;;9.20;99.90;;;;;;7380096;19;20146;-45
2022/09/22 01:02:57;;;;;;;4.63;2.42;;;9.30;99.90;;;;;;7377934;19;20575;-46
2022/09/22 01:05:32;;;;;;;3.83;1.95;;;9.20;99.90;;;;;;7375806;19;20529;-45
2022/09/22 01:08:02;;;;;;;2.33;2.00;;;8.80;99.90;;;;;;7377614;19;20134;-46
2022/09/22 01:10:34;;;;;;;3.78;1.70;;;8.70;99.90;;;;;;7373391;19;20757;-47
2022/09/22 01:13:23;;;;;;;2.50;1.90;;;8.90;99.90;;;;;;7375005;19;20143;-46
2022/09/22 01:16:13;;;;;;;3.63;2.30;;;9.00;99.90;;;;;;7374428;19;20191;-46
2022/09/22 01:18:57;;;;;;;2.05;1.70;;;9.00;99.90;;;;;;7377783;19;21468;-46
2022/09/22 01:21:38;;;;;;;3.60;1.90;;;9.10;99.90;;;;;;7378984;19;20135;-46
2022/09/22 01:24:41;;;;;;;2.13;1.92;;;8.90;99.90;;;;;;7380287;19;20131;-46
2022/09/22 01:27:32;;;;;;;2.63;1.50;;;8.80;99.90;;;;;;7381214;19;20131;-46
2022/09/22 01:30:30;;;;;;;2.95;1.63;;;8.90;99.90;;;;;;7381997;19;20123;-47
2022/09/22 01:33:18;;;;;;;1.55;1.40;;;8.80;99.90;;;;;;7382382;19;20203;-46
2022/09/22 01:36:00;;;;;;;2.00;1.80;;;8.70;99.90;;;;;;7379445;19;20136;-46
2022/09/22 01:38:37;;;;;;;2.65;2.13;;;8.80;99.90;;;;;;7377020;19;20150;-46
2022/09/22 01:41:11;;;;;;;2.92;1.95;;;9.00;99.90;;;;;;7374180;19;20191;-46
2022/09/22 01:43:48;;;;;;;3.53;2.00;;;9.10;99.90;;;;;;7378485;19;20568;-46
2022/09/22 01:46:26;;;;;;;4.43;2.20;;;9.20;99.90;;;;;;7380115;19;20213;-46
2022/09/22 01:48:59;;;;;;;2.97;2.03;;;9.20;99.90;;;;;;7377908;19;20139;-47
2022/09/22 01:51:32;;;;;;;2.50;1.80;;;9.20;99.90;;;;;;7375994;19;20159;-46
2022/09/22 01:54:09;;;;;;;2.80;1.60;;;9.00;99.90;;;;;;7376105;19;20386;-49
2022/09/22 01:56:40;;;;;;;2.00;1.83;;;8.80;99.90;;;;;;7357871;19;20519;-46
2022/09/22 01:59:13;;;;;;;2.30;1.90;;;8.60;99.90;;;;;;7375297;19;20519;-46
2022/09/22 02:01:52;;;;;;;3.92;1.50;;;8.60;99.90;;;;;;7376848;19;20251;-46
2022/09/22 02:04:27;;;;;;;4.03;2.00;;;8.90;99.90;;;;;;7382744;19;20128;-46
2022/09/22 02:07:02;;;;;;;2.63;2.00;;;8.80;99.90;;;;;;7382306;19;20129;-46
2022/09/22 02:09:34;;;;;;;2.47;1.85;;;8.90;99.90;;;;;;7385098;19;20408;-46
2022/09/22 02:12:06;;;;;;;3.53;1.98;;;8.80;99.90;;;;;;7380875;19;20136;-46
2022/09/22 02:14:36;;;;;;;4.38;2.30;;;8.90;99.90;;;;;;7385508;19;20127;-47
2022/09/22 02:17:08;;;;;;;3.72;3.00;;;8.80;99.90;;;;;;7384984;19;20662;-47
2022/09/22 02:19:39;;;;;;;3.35;2.20;;;8.70;99.90;;;;;;7385104;19;20508;-46
2022/09/22 02:22:11;;;;;;;3.22;2.22;;;8.70;99.90;;;;;;7378537;19;20127;-47
2022/09/22 02:24:42;;;;;;;1.98;1.80;;;8.60;99.90;;;;;;7384012;19;20131;-46
2022/09/22 02:27:19;;;;;;;5.15;1.92;;;8.50;99.90;;;;;;7383484;19;20147;-47
2022/09/22 02:29:56;;;;;;;2.58;2.10;;;8.50;99.90;;;;;;7383044;19;20124;-46
2022/09/22 02:32:30;;;;;;;2.55;2.30;;;8.40;99.90;;;;;;7376615;19;20127;-46
2022/09/22 02:35:00;;;;;;;2.13;1.90;;;8.10;99.90;;;;;;7377990;19;20219;-45
2022/09/22 02:37:38;;;;;;;2.53;2.03;;;8.00;99.90;;;;;;7380031;19;20124;-47
2022/09/22 02:40:14;;;;;;;4.80;2.15;;;8.00;99.90;;;;;;7381898;19;20198;-46
2022/09/22 02:42:51;;;;;;;3.28;2.15;;;8.00;99.90;;;;;;7380887;19;20598;-46
2022/09/22 02:45:27;;;;;;;4.15;2.25;;;8.10;99.90;;;;;;7383582;19;20127;-46
2022/09/22 02:48:02;;;;;;;3.17;2.22;;;8.20;99.90;;;;;;7380612;19;20677;-45
2022/09/22 02:50:33;;;;;;;3.53;2.45;;;8.10;99.90;;;;;;7383590;19;20131;-46
2022/09/22 02:53:05;;;;;;;2.50;2.30;;;8.40;99.90;;;;;;7377726;19;20800;-46
2022/09/22 02:55:35;;;;;;;4.47;2.60;;;8.30;99.90;;;;;;7380825;19;20625;-46
2022/09/22 02:58:06;;;;;;;2.80;2.30;;;8.10;99.90;;;;;;7382249;19;20576;-45
2022/09/22 03:00:36;;;;;;;4.88;2.42;;;8.10;99.90;;;;;;7384674;19;20492;-45
2022/09/22 03:03:12;;;;;;;3.45;2.70;;;7.90;99.90;;;;;;7380171;19;20190;-46
2022/09/22 03:05:41;;;;;;;2.78;2.50;;;7.80;99.90;;;;;;7383234;19;20672;-46
2022/09/22 03:08:11;;;;;;;3.35;2.40;;;7.90;99.90;;;;;;7379390;19;20140;-46
2022/09/22 03:10:40;;;;;;;3.80;2.95;;;8.20;99.90;;;;;;7382538;19;20151;-46
2022/09/22 03:13:12;;;;;;;2.63;2.30;;;8.30;99.90;;;;;;7381362;19;20155;-46
2022/09/22 03:15:41;;;;;;;5.88;2.90;;;8.10;99.90;;;;;;7385605;19;20135;-46
2022/09/22 03:18:14;;;;;;;2.60;2.10;;;8.00;99.90;;;;;;7383099;19;20595;-46
2022/09/22 03:20:43;;;;;;;3.40;2.55;;;8.20;99.90;;;;;;7381427;19;20511;-50
2022/09/22 03:23:13;;;;;;;2.50;2.22;;;8.30;99.90;;;;;;7380137;19;20206;-46
2022/09/22 03:25:42;;;;;;;2.83;2.33;;;8.20;99.90;;;;;;7383737;19;20139;-46
2022/09/22 03:28:13;;;;;;;2.90;2.50;;;8.20;99.90;;;;;;7383238;19;20175;-47
2022/09/22 03:30:43;;;;;;;3.00;2.42;;;8.20;99.90;;;;;;7384157;19;20132;-46
2022/09/22 03:33:15;;;;;;;4.20;2.70;;;7.90;99.90;;;;;;7384268;19;20155;-46
2022/09/22 03:35:45;;;;;;;3.85;2.25;;;7.80;99.90;;;;;;7383175;19;20135;-46
2022/09/22 03:38:14;;;;;;;3.35;2.50;;;7.70;99.90;;;;;;7379843;19;20144;-46
2022/09/22 03:40:51;;;;;;;3.03;2.13;;;7.70;99.90;;;;;;7382035;19;20135;-46
2022/09/22 03:43:20;;;;;;;5.10;2.42;;;7.70;99.90;;;;;;7383994;19;20131;-45
2022/09/22 03:45:50;;;;;;;2.60;2.28;;;7.60;99.90;;;;;;7385082;19;20128;-45
2022/09/22 03:48:22;;;;;;;1.80;1.70;;;7.60;99.90;;;;;;7383978;19;20131;-45
2022/09/22 03:50:54;;;;;;;3.20;1.80;;;7.70;99.90;;;;;;7383046;19;20831;-46
2022/09/22 03:53:23;;;;;;;2.63;2.42;;;7.70;99.90;;;;;;7380221;19;20479;-47
2022/09/22 03:56:06;;;;;;;3.65;2.60;;;7.90;99.90;;;;;;7383265;19;20599;-47
2022/09/22 03:58:37;;;;;;;1.85;1.60;;;8.10;99.90;;;;;;7380255;19;20139;-48
2022/09/22 04:01:09;;;;;;;2.17;1.98;;;8.10;99.90;;;;;;7377598;19;20486;-47
2022/09/22 04:03:44;;;;;;;3.67;2.00;;;8.20;99.90;;;;;;7381155;19;20609;-48
2022/09/22 04:06:16;;;;;;;2.05;1.83;;;8.30;99.90;;;;;;7382924;19;20135;-47
2022/09/22 04:08:46;;;;;;;3.05;2.10;;;8.20;99.90;;;;;;7378767;19;20628;-47
2022/09/22 04:11:15;;;;;;;4.30;2.10;;;8.10;99.90;;;;;;7375287;19;20161;-45
2022/09/22 04:13:45;;;;;;;4.50;2.17;;;7.90;99.90;;;;;;7376395;19;20193;-47
2022/09/22 04:16:14;;;;;;;2.90;2.50;;;7.80;99.90;;;;;;7379409;19;20798;-47
2022/09/22 04:18:46;;;;;;;1.80;1.48;;;7.70;99.90;;;;;;7384310;19;20131;-47
2022/09/22 04:21:15;;;;;;;3.40;2.05;;;7.90;99.90;;;;;;7372207;19;20719;-47
2022/09/22 04:23:47;;;;;;;5.43;2.10;;;7.90;99.90;;;;;;7374489;19;20132;-47
2022/09/22 04:26:17;;;;;;;2.90;1.77;;;7.70;99.90;;;;;;7372736;19;20132;-45
2022/09/22 04:28:46;;;;;;;5.00;2.97;;;7.60;99.90;;;;;;7381351;19;20169;-48
2022/09/22 04:31:18;;;;;;;4.57;2.50;;;7.60;99.90;;;;;;7375628;19;20131;-47
2022/09/22 04:33:52;;;;;;;2.70;2.05;;;7.60;99.90;;;;;;7372707;19;20586;-45
2022/09/22 04:36:22;;;;;;;2.90;2.25;;;7.70;99.90;;;;;;7372111;19;21428;-47
2022/09/22 04:38:51;;;;;;;5.00;4.00;;;7.80;99.90;;;;;;7376296;19;20181;-47
2022/09/22 04:41:20;;;;;;;3.65;3.00;;;7.90;99.90;;;;;;7381236;19;20175;-47
2022/09/22 04:43:50;;;;;;;3.10;2.47;;;7.90;99.90;;;;;;7382158;19;20127;-46
2022/09/22 04:46:19;;;;;;;4.28;2.83;;;7.80;99.90;;;;;;7372485;19;20166;-47
2022/09/22 04:48:51;;;;;;;4.15;2.58;;;7.70;99.90;;;;;;7380948;19;20172;-47
2022/09/22 04:51:21;;;;;;;5.00;3.15;;;7.70;99.90;;;;;;7379165;19;20127;-47
2022/09/22 04:53:50;;;;;;;4.30;2.95;;;7.70;99.90;;;;;;7372868;19;20143;-47
2022/09/22 04:56:20;;;;;;;5.97;3.03;;;7.70;99.90;;;;;;7368736;19;20542;-47
2022/09/22 04:58:50;;;;;;;4.22;3.47;;;7.70;99.90;;;;;;7373278;19;20138;-47
2022/09/22 05:01:19;;;;;;;4.38;3.97;;;7.50;99.90;;;;;;7370301;19;20152;-47
2022/09/22 05:03:54;;;;;;;3.67;2.83;;;7.60;99.90;;;;;;7378774;19;20147;-47
2022/09/22 05:06:23;;;;;;;6.90;3.40;;;7.60;99.90;;;;;;7375878;19;20123;-47
2022/09/22 05:08:52;;;;;;;4.25;3.30;;;7.70;99.90;;;;;;7373912;19;20251;-45
2022/09/22 05:11:23;;;;;;;5.40;3.88;;;7.70;99.90;;;;;;7378434;19;20151;-47
2022/09/22 05:13:52;;;;;;;3.83;3.15;;;7.50;99.90;;;;;;7377883;19;20198;-47
2022/09/22 05:16:22;;;;;;;3.60;3.13;;;7.40;99.90;;;;;;7376173;19;20669;-47
2022/09/22 05:18:55;;;;;;;4.28;3.28;;;7.50;99.90;;;;;;7382325;19;20123;-48
2022/09/22 05:21:24;;;;;;;3.40;3.10;;;7.70;99.90;;;;;;7377713;19;20161;-47
2022/09/22 05:23:54;;;;;;;5.00;3.08;;;7.70;99.90;;;;;;7374596;19;20120;-45
2022/09/22 05:26:26;;;;;;;4.80;3.55;;;7.40;99.90;;;;;;7369574;19;20136;-45
2022/09/22 05:28:58;;;;;;;3.55;3.05;;;7.40;99.90;;;;;;7380986;19;20572;-47
2022/09/22 05:31:27;;;;;;;4.03;2.80;;;7.50;99.90;;;;;;7379023;19;20167;-47
2022/09/22 05:33:59;;;;;;;5.00;3.30;;;7.50;99.90;;;;;;7381282;19;20195;-45
2022/09/22 05:36:29;;;;;;;4.05;3.28;;;7.50;99.90;;;;;;7378995;19;20131;-44
2022/09/22 05:38:58;;;;;;;4.40;2.90;;;7.50;99.90;;;;;;7384585;19;20195;-47
2022/09/22 05:41:28;;;;;;;3.72;2.78;;;7.70;99.90;;;;;;7389447;19;20136;-47
2022/09/22 05:43:57;;;;;;;4.68;2.60;;;7.80;99.90;;;;;;7388590;19;20169;-47
2022/09/22 05:46:27;;;;;;;4.28;2.80;;;7.90;99.90;;;;;;7388200;19;20621;-47
2022/09/22 05:48:59;;;;;;;4.70;3.47;;;7.90;99.90;;;;;;7387997;19;20173;-47
2022/09/22 05:51:29;;;;;;;4.25;2.65;;;7.70;99.90;;;;;;7385793;19;20508;-47
2022/09/22 05:53:58;;;;;;;3.83;2.88;;;7.70;99.90;;;;;;7387063;19;20541;-48
2022/09/22 05:56:28;;;;;;;3.58;2.85;;;8.00;99.90;;;;;;7387850;19;20194;-47
2022/09/22 05:59:00;;;;;;;3.08;2.35;;;8.10;99.90;;;;;;7389524;19;20635;-47
2022/09/22 06:01:32;;;;;;;5.75;3.00;;;8.10;99.90;;;;;;7387260;19;20238;-47
2022/09/22 06:04:04;;;;;;;5.40;3.03;;;8.10;99.90;;;;;;7390506;19;20143;-47
2022/09/22 06:06:34;;;;;;;5.25;3.17;;;8.10;99.90;;;;;;7383271;19;20154;-47
2022/09/22 06:09:03;;;;;;;6.55;3.33;;;8.20;99.90;;;;;;7381883;19;20226;-47
2022/09/22 06:11:33;;;;;;;5.63;3.42;;;8.20;99.90;;;;;;7384046;19;20139;-47
2022/09/22 06:14:02;;;;;;;3.83;3.40;;;8.10;99.90;;;;;;7389068;19;20139;-47
2022/09/22 06:16:32;;;;;;;5.57;3.17;;;8.00;99.90;;;;;;7388741;19;20120;-47
2022/09/22 06:19:07;;;;;;;5.25;3.22;;;7.90;99.90;;;;;;7385446;19;20219;-47
2022/09/22 06:21:37;;;;;;;4.03;3.40;;;7.90;99.90;;;;;;7385065;19;20496;-47
2022/09/22 06:24:07;;;;;;;5.50;4.30;;;8.10;99.90;;;;;;7385767;19;20621;-47
2022/09/22 06:26:36;;;;;;;8.02;4.13;;;8.00;99.90;;;;;;7383418;19;20124;-47
2022/09/22 06:29:06;;;;;;;5.43;4.32;;;7.90;99.90;;;;;;7387292;19;20230;-47
2022/09/22 06:31:35;;;;;;;5.82;3.88;;;8.00;99.90;;;;;;7383296;19;20553;-47
2022/09/22 06:34:07;;;;;;;14.73;6.85;;;8.20;99.90;;;;;;7387346;19;20123;-47
2022/09/22 06:36:37;;;;;;;8.13;4.00;;;8.40;99.90;;;;;;7384477;19;20216;-47
2022/09/22 06:39:10;;;;;;;6.38;4.15;;;8.30;99.90;;;;;;7386952;19;20640;-47
2022/09/22 06:41:43;;;;;;;6.13;4.57;;;8.20;99.90;;;;;;7384073;19;20211;-47
2022/09/22 06:44:14;;;;;;;5.95;4.20;;;8.30;99.90;;;;;;7385242;19;20140;-47
2022/09/22 06:46:44;;;;;;;10.90;8.52;;;8.40;99.90;;;;;;7386117;19;20605;-47
2022/09/22 06:49:16;;;;;;;15.73;9.35;;;8.60;99.90;;;;;;7387108;19;20135;-47
2022/09/22 06:51:48;;;;;;;6.55;5.05;;;8.90;99.90;;;;;;7383619;19;20620;-48
2022/09/22 06:54:18;;;;;;;6.43;4.28;;;9.20;99.90;;;;;;7382964;19;20127;-47
2022/09/22 06:56:47;;;;;;;25.00;14.10;;;9.60;99.90;;;;;;7382429;19;20135;-47
2022/09/22 06:59:16;;;;;;;12.60;6.83;;;9.80;99.90;;;;;;7384120;19;20143;-45
2022/09/22 07:01:46;;;;;;;5.00;4.00;;;10.20;99.90;;;;;;7381659;19;20432;-44
2022/09/22 07:04:22;;;;;;;5.80;3.70;;;10.50;99.90;;;;;;7383583;19;20376;-45
2022/09/22 07:06:56;;;;;;;6.10;3.80;;;10.70;99.90;;;;;;7383552;19;20400;-45
2022/09/22 07:09:25;;;;;;;7.90;3.67;;;11.00;99.90;;;;;;7384299;19;20432;-45
2022/09/22 07:11:54;;;;;;;9.23;4.90;;;11.30;99.90;;;;;;7383278;19;20805;-45
2022/09/22 07:14:24;;;;;;;15.23;6.50;;;11.50;99.50;;;;;;7383018;19;20495;-45
2022/09/22 07:16:54;;;;;;;7.57;5.20;;;11.80;97.50;;;;;;7381417;19;20511;-45
2022/09/22 07:19:31;;;;;;;9.90;4.27;;;12.00;96.00;;;;;;7383410;19;20749;-45
2022/09/22 07:22:01;;;;;;;7.10;4.20;;;12.30;94.10;;;;;;7383729;19;20415;-45
2022/09/22 07:24:31;;;;;;;6.30;3.77;;;12.50;91.60;;;;;;7383932;19;20372;-47
2022/09/22 07:27:03;;;;;;;4.23;3.60;;;12.70;90.30;;;;;;7383915;19;21014;-47
2022/09/22 07:29:32;;;;;;;5.80;3.50;;;12.90;86.80;;;;;;7383491;19;20416;-47
2022/09/22 07:32:02;;;;;;;7.27;4.37;;;13.10;87.00;;;;;;7384768;19;20415;-46
2022/09/22 07:34:34;;;;;;;3.97;3.57;;;13.20;84.60;;;;;;7384999;19;20388;-47
2022/09/22 07:37:04;;;;;;;6.17;5.10;;;13.20;83.10;;;;;;7383986;19;20421;-47
2022/09/22 07:39:33;;;;;;;6.83;4.37;;;13.10;82.50;;;;;;7384405;19;20439;-47
2022/09/22 07:42:03;;;;;;;6.20;4.33;;;13.00;82.00;;;;;;7381855;19;20368;-47
2022/09/22 07:47:14;;;;;;;9.33;4.87;;;12.90;82.70;;;;;;7383614;19;20371;-47
2022/09/22 07:49:46;;;;;;;10.80;6.10;;;12.80;85.30;;;;;;7379956;19;20409;-47
2022/09/22 07:52:16;;;;;;;10.13;5.73;;;12.70;84.90;;;;;;7382819;19;20383;-47
2022/09/22 07:54:45;;;;;;;11.47;6.20;;;12.70;85.10;;;;;;7382684;19;20387;-47
2022/09/22 07:57:15;;;;;;;11.67;6.77;;;12.60;87.10;;;;;;7384072;19;20404;-45
2022/09/22 07:59:46;;;;;;;10.77;6.80;;;12.70;86.50;;;;;;7382547;19;20373;-47
2022/09/22 08:02:15;;;;;;;9.70;6.07;;;12.70;86.50;;;;;;7379731;19;20424;-47
2022/09/22 08:04:47;;;;;;;12.33;5.80;;;12.80;86.10;;;;;;7384727;19;20958;-47
2022/09/22 08:07:17;;;;;;;8.20;5.63;;;12.90;85.00;;;;;;7380877;19;20710;-47
2022/09/22 08:09:46;;;;;;;11.33;6.80;;;13.00;84.30;;;;;;7379398;19;20906;-47
2022/09/22 08:12:16;;;;;;;14.27;6.60;;;13.00;84.50;;;;;;7381035;19;20372;-47
2022/09/22 08:14:46;;;;;;;10.67;6.70;;;13.30;83.80;;;;;;7377545;19;20380;-48
2022/09/22 08:17:15;;;;;;;8.17;6.50;;;13.70;82.10;;;;;;7382439;19;20412;-45
2022/09/22 08:19:47;;;;;;;13.40;6.30;;;14.30;81.60;;;;;;7383011;19;20413;-47
2022/09/22 08:22:20;;;;;;;10.73;6.27;;;14.90;76.10;;;;;;7381291;19;20383;-45
2022/09/22 08:24:49;;;;;;;9.43;6.23;;;15.60;72.70;;;;;;7379421;19;20372;-45
2022/09/22 08:27:19;;;;;;;7.53;4.53;;;16.30;70.40;;;;;;7380612;19;20987;-46
2022/09/22 08:29:48;;;;;;;6.27;5.30;;;16.80;63.70;;;;;;7381923;19;20364;-45
2022/09/22 08:32:20;;;;;;;5.40;4.27;;;17.30;63.20;;;;;;7381370;19;20413;-46
2022/09/22 08:34:56;;;;;;;15.70;6.77;;;17.80;58.80;;;;;;7381937;19;20581;-46
2022/09/22 08:37:26;;;;;;;10.57;5.90;;;18.20;57.40;;;;;;7379909;19;20956;-46
2022/09/22 08:39:58;;;;;;;10.37;6.27;;;18.60;57.40;;;;;;7380613;19;20393;-46
2022/09/22 08:42:30;;;;;;;10.00;5.70;;;19.20;56.20;;;;;;7378015;19;20448;-46
2022/09/22 08:45:05;;;;;;;13.10;5.90;;;19.90;55.20;;;;;;7375868;19;20380;-46
2022/09/22 08:53:21;;;;;;;3.30;1.70;;;21.30;50.50;;;;;;7374567;19;20376;-46
2022/09/22 08:55:57;;;;;;;3.20;1.80;;;21.40;47.70;;;;;;7377386;19;20404;-46
2022/09/22 08:58:38;;;;;;;2.83;2.00;;;21.50;47.50;;;;;;7378627;19;20419;-46
2022/09/22 09:01:22;;;;;;;2.13;1.50;;;21.70;47.00;;;;;;7377928;19;20499;-46
2022/09/22 09:04:06;;;;;;;3.23;2.30;;;21.80;45.90;;;;;;7379361;19;20380;-46
2022/09/22 09:06:45;;;;;;;2.87;2.33;;;22.40;46.50;;;;;;7379861;19;20404;-46
2022/09/22 09:09:32;;;;;;;4.17;2.83;;;23.40;44.70;;;;;;7378041;19;20396;-46
2022/09/22 09:12:17;;;;;;;1.67;1.47;;;23.60;43.40;;;;;;7382418;19;20907;-47
2022/09/22 09:15:11;;;;;;;7.40;1.67;;;24.00;42.00;;;;;;7382957;19;20752;-46
2022/09/22 09:17:44;;;;;;;2.60;1.50;;;23.90;42.00;;;;;;7375728;19;20508;-46
2022/09/22 09:20:18;;;;;;;1.77;1.40;;;23.70;42.80;;;;;;7377612;19;20786;-46
2022/09/22 09:22:54;;;;;;;2.30;1.50;;;24.30;41.10;;;;;;7379458;19;20379;-46
2022/09/22 09:25:34;;;;;;;1.67;1.47;;;24.20;41.50;;;;;;7380540;19;20986;-47
2022/09/22 09:28:07;;;;;;;4.10;1.40;;;24.60;41.20;;;;;;7382201;19;20381;-47
2022/09/22 09:30:45;;;;;;;1.63;1.40;;;25.00;41.00;;;;;;7380464;19;20372;-46
2022/09/22 09:33:24;;;;;;;1.87;1.00;;;24.70;39.90;;;;;;7377782;19;20372;-46
2022/09/22 09:35:54;;;;;;;2.27;1.40;;;24.30;40.30;;;;;;7375797;19;20405;-46
2022/09/22 09:38:29;;;;;;;1.90;1.50;;;24.70;40.90;;;;;;7382490;19;20375;-46
2022/09/22 09:41:10;;;;;;;1.90;1.53;;;25.70;40.20;;;;;;7380750;19;21486;-46
2022/09/22 09:43:44;;;;;;;3.70;1.50;;;26.60;38.90;;;;;;7382203;19;20367;-46
2022/09/22 09:46:20;;;;;;;2.17;1.73;;;26.80;37.10;;;;;;7380341;19;21587;-46
2022/09/22 09:49:07;;;;;;;2.33;1.30;;;26.50;37.80;;;;;;7378636;19;20374;-46
2022/09/22 09:51:38;;;;;;;2.40;1.50;;;26.50;37.50;;;;;;7373636;19;20395;-47
2022/09/22 09:54:13;;;;;;;3.90;1.37;;;26.90;37.40;;;;;;7374773;19;20421;-46
2022/09/22 09:57:08;;;;;;;3.60;1.33;;;27.10;36.20;;;;;;7376198;19;20376;-46
2022/09/22 10:02:27;;;;;;;2.60;1.50;;;27.30;36.00;;;;;;7377765;19;20455;-46
2022/09/22 10:04:59;;;;;;;2.33;1.60;;;27.30;35.90;;;;;;7373030;19;20391;-46
2022/09/22 10:07:30;;;;;;;2.40;1.40;;;27.40;35.40;;;;;;7381217;19;20454;-47
2022/09/22 10:10:25;;;;;;;3.70;1.30;;;27.40;34.90;;;;;;7372343;19;20392;-47
2022/09/22 10:13:16;;;;;;;1.33;1.13;;;27.90;35.50;;;;;;7374607;19;20395;-47
2022/09/22 10:16:03;;;;;;;10.97;2.87;;;28.30;34.60;;;;;;7377487;19;20749;-46
2022/09/22 10:18:39;;;;;;;3.73;1.57;;;27.70;34.80;;;;;;7373736;19;20451;-47
2022/09/22 10:21:16;;;;;;;6.47;2.10;;;27.90;35.40;;;;;;7378836;19;20375;-47
2022/09/22 10:23:49;;;;;;;2.93;1.50;;;28.50;33.60;;;;;;7379110;19;20384;-47
2022/09/22 10:26:25;;;;;;;3.93;1.33;;;28.80;33.30;;;;;;7384168;19;20372;-47
2022/09/22 10:29:24;;;;;;;2.23;1.50;;;30.00;33.10;;;;;;7388704;19;20401;-50
2022/09/22 10:32:06;;;;;;;3.20;1.30;;;31.00;31.40;;;;;;7386517;19;20427;-47
2022/09/22 10:34:41;;;;;;;1.17;1.00;;;30.80;30.00;;;;;;7384242;19;20505;-47
2022/09/22 10:37:13;;;;;;;1.73;1.10;;;29.70;30.40;;;;;;7384981;19;20372;-47
2022/09/22 10:39:46;;;;;;;1.47;1.10;;;29.70;30.90;;;;;;7387718;19;20368;-47
2022/09/22 10:42:35;;;;;;;2.20;1.03;;;30.40;30.10;;;;;;7384495;19;20383;-47
2022/09/22 10:45:11;;;;;;;1.10;0.80;;;30.50;30.00;;;;;;7382027;19;20386;-47
2022/09/22 10:47:56;;;;;;;0.97;0.80;;;30.70;29.10;;;;;;7385741;19;20360;-47
2022/09/22 10:50:52;;;;;;;1.20;0.77;;;30.30;29.80;;;;;;7384443;19;20364;-47
2022/09/22 10:53:40;;;;;;;0.80;0.63;;;29.90;30.70;;;;;;7383555;19;20474;-47
2022/09/22 10:56:17;;;;;;;1.13;0.80;;;30.20;30.10;;;;;;7384579;19;20397;-47
2022/09/22 10:59:24;;;;;;;1.10;0.90;;;30.60;29.70;;;;;;7381231;19;20374;-47
2022/09/22 11:02:13;;;;;;;0.87;0.73;;;30.90;30.00;;;;;;7379375;19;20930;-47
2022/09/22 11:04:56;;;;;;;2.10;0.80;;;31.80;29.00;;;;;;7381917;19;20387;-47
2022/09/22 11:13:52;;;;;;;1.70;1.00;;;31.20;29.10;;;;;;7379730;19;20755;-47
2022/09/22 11:16:49;;;;;;;1.37;0.90;;;31.20;28.90;;;;;;7370930;19;20391;-47
2022/09/22 11:19:35;;;;;;;2.03;0.93;;;31.40;28.30;;;;;;7369147;19;20399;-48
2022/09/22 11:22:36;;;;;;;1.30;0.90;;;32.00;28.30;;;;;;7378438;19;20393;-48
2022/09/22 11:25:18;;;;;;;1.87;0.93;;;32.60;28.10;;;;;;7379231;19;20450;-48
2022/09/22 11:27:57;;;;;;;2.37;1.00;;;32.50;27.30;;;;;;7378534;19;20376;-47
2022/09/22 11:30:34;;;;;;;1.07;0.90;;;31.80;28.50;;;;;;7377285;19;20395;-47
2022/09/22 11:33:36;;;;;;;;;;;;;;;;;;;;;
2022/09/22 12:44:33;;;;;;;2.20;0.90;;;32.90;25.20;;;;;;7070922;19;21112;-72
2022/09/22 12:47:06;;;;;;;1.00;0.70;;;32.30;25.90;;;;;;7360308;19;20372;-79
2022/09/22 12:49:36;;;;;;;0.90;0.77;;;32.10;26.40;;;;;;7370672;19;20433;-79
2022/09/22 12:52:38;;;;;;;1.80;0.90;;;31.80;26.50;;;;;;7365961;19;20753;-82
2022/09/22 12:55:20;;;;;;;3.63;0.90;;;32.30;26.60;;;;;;7361700;19;20404;-85
2022/09/22 12:57:51;;;;;;;1.37;0.73;;;32.90;25.90;;;;;;7364964;19;20435;-78
2022/09/22 13:00:28;;;;;;;1.00;0.70;;;32.00;25.20;;;;;;7363363;19;20399;-82
2022/09/22 13:02:58;;;;;;;1.10;0.80;;;31.20;26.50;;;;;;7355922;19;20368;-78
2022/09/22 13:05:34;;;;;;;0.70;0.60;;;31.20;26.90;;;;;;7365013;19;20400;-78
2022/09/22 13:08:06;;;;;;;0.90;0.80;;;31.30;26.80;;;;;;7370320;19;20465;-76
2022/09/22 13:10:42;;;;;;;0.97;0.70;;;31.20;26.60;;;;;;7365434;19;20508;-77
2022/09/22 13:13:25;;;;;;;1.17;0.70;;;31.40;26.50;;;;;;7347434;19;20404;-76
2022/09/22 13:16:02;;;;;;;1.20;0.93;;;31.40;26.40;;;;;;7372590;19;20524;-76
2022/09/22 13:18:38;;;;;;;1.17;0.60;;;31.50;26.30;;;;;;7349278;19;20444;-77
2022/09/22 13:21:24;;;;;;;1.13;0.80;;;31.10;26.60;;;;;;7375302;19;20376;-77
2022/09/22 13:23:58;;;;;;;1.23;1.00;;;32.20;25.70;;;;;;7374057;19;20392;-76
2022/09/22 13:26:30;;;;;;;2.10;1.10;;;31.90;25.60;;;;;;7360970;19;20376;-76
2022/09/22 13:29:05;;;;;;;1.07;0.60;;;31.40;26.30;;;;;;7372326;19;20400;-77
2022/09/22 13:31:44;;;;;;;1.50;0.77;;;31.80;25.90;;;;;;7368721;19;20371;-74
2022/09/22 13:34:20;;;;;;;0.93;0.83;;;32.40;25.60;;;;;;7365613;19;20419;-77
2022/09/22 13:36:51;;;;;;;1.80;1.03;;;32.80;25.30;;;;;;7373482;19;20632;-77
2022/09/22 13:39:24;;;;;;;5.97;1.10;;;32.50;25.60;;;;;;7372668;19;20408;-78
2022/09/22 13:41:58;;;;;;;1.20;0.73;;;33.20;25.00;;;;;;7376750;19;20416;-76
2022/09/22 13:44:32;;;;;;;0.70;0.60;;;33.00;24.80;;;;;;7373071;19;20808;-77
2022/09/22 13:47:08;;;;;;;1.00;0.83;;;32.80;25.20;;;;;;7366162;19;20412;-77
2022/09/22 13:49:41;;;;;;;0.97;0.83;;;32.00;25.30;;;;;;7365593;19;20792;-77
2022/09/22 13:52:18;;;;;;;0.80;0.77;;;31.40;26.00;;;;;;7374859;19;20391;-77
2022/09/22 13:54:51;;;;;;;0.93;0.83;;;31.40;25.90;;;;;;7371876;19;20935;-76
2022/09/22 13:57:23;;;;;;;1.07;0.80;;;31.60;26.10;;;;;;7362937;19;20472;-78
2022/09/22 13:59:54;;;;;;;1.13;0.93;;;31.80;25.90;;;;;;7374160;19;20396;-77
2022/09/22 14:02:28;;;;;;;2.90;1.40;;;32.10;25.50;;;;;;7378713;19;20417;-79
2022/09/22 14:05:04;;;;;;;2.10;0.63;;;32.00;25.80;;;;;;7379440;19;20400;-75
2022/09/22 14:07:37;;;;;;;2.73;0.70;;;31.70;25.50;;;;;;7373891;19;20407;-76
2022/09/22 14:10:09;;;;;;;0.90;0.73;;;30.80;26.10;;;;;;7371276;19;20443;-76
2022/09/22 14:12:39;;;;;;;2.10;0.90;;;30.20;26.80;;;;;;7371170;19;20475;-77
2022/09/22 14:15:39;;;;;;;1.17;0.80;;;30.20;26.80;;;;;;7375639;19;20427;-76
2022/09/22 14:18:21;;;;;;;1.93;1.00;;;29.60;27.40;;;;;;7371222;19;20940;-75
2022/09/22 14:20:54;;;;;;;1.63;1.10;;;28.90;28.20;;;;;;7378923;19;21049;-77
2022/09/22 14:23:30;;;;;;;1.47;0.80;;;28.40;28.60;;;;;;7377024;19;20490;-77
2022/09/22 14:26:03;;;;;;;1.13;0.90;;;27.20;29.70;;;;;;7377212;19;20435;-77
2022/09/22 14:28:37;;;;;;;1.27;1.10;;;26.10;31.10;;;;;;7376453;19;20415;-77
2022/09/22 14:31:14;;;;;;;1.60;0.87;;;25.30;32.00;;;;;;7376730;19;20404;-76
2022/09/22 14:33:47;;;;;;;1.10;0.87;;;24.60;32.80;;;;;;7377752;19;20415;-76
2022/09/22 14:36:19;;;;;;;1.13;0.87;;;24.10;33.00;;;;;;7364053;19;20952;-77
2022/09/22 14:38:50;;;;;;;0.80;0.70;;;23.70;33.10;;;;;;7378461;19;20480;-77
2022/09/22 14:41:23;;;;;;;0.80;0.60;;;23.30;33.20;;;;;;7371452;19;20509;-77
2022/09/22 14:43:53;;;;;;;1.37;0.63;;;22.80;33.80;;;;;;7379737;19;20402;-77
2022/09/22 14:46:32;;;;;;;1.50;1.17;;;22.50;34.50;;;;;;7374856;19;20401;-76
2022/09/22 14:49:38;;;;;;;2.70;1.30;;;22.30;35.00;;;;;;7381408;19;20448;-77
2022/09/22 14:52:13;;;;;;;1.50;0.87;;;21.80;35.80;;;;;;7373250;19;20407;-77
2022/09/22 14:54:44;;;;;;;1.10;0.90;;;21.60;36.20;;;;;;7379359;19;20927;-77
2022/09/22 14:57:18;;;;;;;0.73;0.70;;;21.60;36.30;;;;;;7369918;19;20993;-75